Adisham, United Kingdom
Current Conditions -  °F | °C
As of 6:50 PM on Thursday 20 Nov 2014 (Local Time) from EGMD Reporting Station
Scattered Clouds Scattered Clouds  
Wind Chill: 50°   Ceiling: Unl
Heat Index: 50°   Visibility: 4mi
Dew Point: 46°   Wind: 16mph
Humidity: 87%   Direction: 90°E
Pressure: 30.24"   Gusts: NA
Location:  51.27°N, 1.22°E
Report Text: EGMD 201850Z 09014KT 7000 SCT010 10/08 Q1024
Loading
Personal Weather Stations






























Interactive Weather Map New forecast layout! Learn more

10-Day Weather Forecast

Advertisements
Track Severe Weather on mobile